sensor_id;sensor_type;location;lat;lon;timestamp;pressure;altitude;pressure_sealevel;temperature;humidity
35647;BME280;28680;45.642;13.756;2023-07-08T00:00:54;101752.22;;;25.22;100.00
35647;BME280;28680;45.642;13.756;2023-07-08T00:03:20;101751.47;;;25.28;100.00
35647;BME280;28680;45.642;13.756;2023-07-08T00:05:47;101754.88;;;25.37;100.00
35647;BME280;28680;45.642;13.756;2023-07-08T00:08:17;101758.31;;;25.31;100.00
35647;BME280;28680;45.642;13.756;2023-07-08T00:10:45;101755.00;;;25.29;100.00
35647;BME280;28680;45.642;13.756;2023-07-08T00:13:11;101760.38;;;25.29;100.00
35647;BME280;28680;45.642;13.756;2023-07-08T00:15:39;101764.34;;;25.33;100.00
35647;BME280;28680;45.642;13.756;2023-07-08T00:18:17;101759.34;;;25.30;100.00
35647;BME280;28680;45.642;13.756;2023-07-08T00:20:47;101764.91;;;25.28;100.00
35647;BME280;28680;45.642;13.756;2023-07-08T00:23:14;101774.00;;;25.27;100.00
35647;BME280;28680;45.642;13.756;2023-07-08T00:25:41;101779.94;;;25.23;100.00
35647;BME280;28680;45.642;13.756;2023-07-08T00:28:19;101777.19;;;25.16;100.00
35647;BME280;28680;45.642;13.756;2023-07-08T00:30:45;101774.16;;;25.04;100.00
35647;BME280;28680;45.642;13.756;2023-07-08T00:33:11;101776.38;;;25.01;100.00
35647;BME280;28680;45.642;13.756;2023-07-08T00:35:41;101781.19;;;25.05;100.00
35647;BME280;28680;45.642;13.756;2023-07-08T00:38:21;101789.44;;;25.04;100.00
35647;BME280;28680;45.642;13.756;2023-07-08T00:41:18;101796.03;;;25.01;100.00
35647;BME280;28680;45.642;13.756;2023-07-08T00:43:55;101796.09;;;25.08;100.00
35647;BME280;28680;45.642;13.756;2023-07-08T00:46:29;101803.78;;;25.11;100.00
35647;BME280;28680;45.642;13.756;2023-07-08T00:49:29;101814.25;;;25.06;100.00
35647;BME280;28680;45.642;13.756;2023-07-08T00:52:36;101810.78;;;25.12;100.00
35647;BME280;28680;45.642;13.756;2023-07-08T00:55:07;101814.34;;;25.13;100.00
35647;BME280;28680;45.642;13.756;2023-07-08T00:57:40;101813.25;;;25.07;100.00
35647;BME280;28680;45.642;13.756;2023-07-08T01:00:12;101822.50;;;25.04;100.00
35647;BME280;28680;45.642;13.756;2023-07-08T01:02:54;101813.56;;;24.97;100.00
35647;BME280;28680;45.642;13.756;2023-07-08T01:05:25;101818.94;;;24.97;100.00
35647;BME280;28680;45.642;13.756;2023-07-08T01:07:57;101819.94;;;24.96;100.00
35647;BME280;28680;45.642;13.756;2023-07-08T01:10:38;101816.50;;;24.87;100.00
35647;BME280;28680;45.642;13.756;2023-07-08T01:13:07;101812.81;;;24.88;100.00
35647;BME280;28680;45.642;13.756;2023-07-08T01:15:43;101814.28;;;24.91;100.00
35647;BME280;28680;45.642;13.756;2023-07-08T01:18:15;101803.22;;;25.01;100.00
35647;BME280;28680;45.642;13.756;2023-07-08T01:20:47;101796.34;;;24.92;100.00
35647;BME280;28680;45.642;13.756;2023-07-08T01:23:13;101800.00;;;25.05;100.00
35647;BME280;28680;45.642;13.756;2023-07-08T01:25:41;101794.25;;;25.08;100.00
35647;BME280;28680;45.642;13.756;2023-07-08T01:28:08;101791.84;;;24.99;100.00
35647;BME280;28680;45.642;13.756;2023-07-08T01:30:36;101791.03;;;24.98;100.00
35647;BME280;28680;45.642;13.756;2023-07-08T01:33:09;101784.06;;;24.82;100.00
35647;BME280;28680;45.642;13.756;2023-07-08T01:35:38;101784.06;;;24.82;100.00
35647;BME280;28680;45.642;13.756;2023-07-08T01:38:05;101775.09;;;24.75;100.00
35647;BME280;28680;45.642;13.756;2023-07-08T01:40:36;101780.72;;;24.80;100.00
35647;BME280;28680;45.642;13.756;2023-07-08T01:43:05;101780.91;;;24.79;100.00
35647;BME280;28680;45.642;13.756;2023-07-08T01:45:39;101773.22;;;24.76;100.00
35647;BME280;28680;45.642;13.756;2023-07-08T01:48:15;101769.25;;;24.71;100.00
35647;BME280;28680;45.642;13.756;2023-07-08T01:50:56;101762.66;;;24.74;100.00
35647;BME280;28680;45.642;13.756;2023-07-08T01:53:39;101755.81;;;24.86;100.00
35647;BME280;28680;45.642;13.756;2023-07-08T01:56:10;101752.72;;;24.89;100.00
35647;BME280;28680;45.642;13.756;2023-07-08T01:58:36;101754.53;;;24.82;100.00
35647;BME280;28680;45.642;13.756;2023-07-08T02:01:04;101751.19;;;24.80;100.00
35647;BME280;28680;45.642;13.756;2023-07-08T02:03:30;101746.84;;;24.79;100.00
35647;BME280;28680;45.642;13.756;2023-07-08T02:05:56;101748.13;;;24.83;100.00
35647;BME280;28680;45.642;13.756;2023-07-08T02:08:23;101745.63;;;24.82;100.00
35647;BME280;28680;45.642;13.756;2023-07-08T02:10:52;101744.59;;;24.83;100.00
35647;BME280;28680;45.642;13.756;2023-07-08T02:13:20;101736.38;;;24.84;100.00
35647;BME280;28680;45.642;13.756;2023-07-08T02:15:47;101744.34;;;24.78;100.00
35647;BME280;28680;45.642;13.756;2023-07-08T02:18:13;101745.75;;;24.74;100.00
35647;BME280;28680;45.642;13.756;2023-07-08T02:20:39;101744.09;;;24.73;100.00
35647;BME280;28680;45.642;13.756;2023-07-08T02:23:05;101749.09;;;24.61;100.00
35647;BME280;28680;45.642;13.756;2023-07-08T02:25:31;101741.06;;;24.61;100.00
35647;BME280;28680;45.642;13.756;2023-07-08T02:27:57;101750.22;;;24.51;100.00
35647;BME280;28680;45.642;13.756;2023-07-08T02:30:26;101750.50;;;24.42;100.00
35647;BME280;28680;45.642;13.756;2023-07-08T02:32:53;101751.44;;;24.34;100.00
35647;BME280;28680;45.642;13.756;2023-07-08T02:35:29;101742.56;;;24.33;100.00
35647;BME280;28680;45.642;13.756;2023-07-08T02:37:57;101741.72;;;24.33;100.00
35647;BME280;28680;45.642;13.756;2023-07-08T02:40:24;101742.09;;;24.30;100.00
35647;BME280;28680;45.642;13.756;2023-07-08T02:42:50;101746.81;;;24.28;100.00
35647;BME280;28680;45.642;13.756;2023-07-08T02:45:17;101750.25;;;24.22;100.00
35647;BME280;28680;45.642;13.756;2023-07-08T02:47:43;101755.69;;;24.13;100.00
35647;BME280;28680;45.642;13.756;2023-07-08T02:50:11;101753.47;;;24.17;100.00
35647;BME280;28680;45.642;13.756;2023-07-08T02:52:37;101747.41;;;24.08;100.00
35647;BME280;28680;45.642;13.756;2023-07-08T02:55:04;101745.16;;;24.12;100.00
35647;BME280;28680;45.642;13.756;2023-07-08T02:57:30;101743.13;;;24.14;100.00
35647;BME280;28680;45.642;13.756;2023-07-08T02:59:56;101743.03;;;24.07;100.00
35647;BME280;28680;45.642;13.756;2023-07-08T03:02:22;101744.78;;;24.15;100.00
35647;BME280;28680;45.642;13.756;2023-07-08T03:04:49;101744.50;;;24.10;100.00
35647;BME280;28680;45.642;13.756;2023-07-08T03:07:17;101751.44;;;24.04;100.00
35647;BME280;28680;45.642;13.756;2023-07-08T03:09:43;101746.81;;;23.98;100.00
35647;BME280;28680;45.642;13.756;2023-07-08T03:12:11;101740.00;;;23.96;100.00
35647;BME280;28680;45.642;13.756;2023-07-08T03:14:37;101737.78;;;23.99;100.00
35647;BME280;28680;45.642;13.756;2023-07-08T03:17:03;101732.03;;;24.02;100.00
35647;BME280;28680;45.642;13.756;2023-07-08T03:19:30;101726.88;;;24.01;100.00
35647;BME280;28680;45.642;13.756;2023-07-08T03:21:55;101729.09;;;23.97;100.00
35647;BME280;28680;45.642;13.756;2023-07-08T03:24:21;101725.94;;;23.93;100.00
35647;BME280;28680;45.642;13.756;2023-07-08T03:26:47;101723.78;;;23.89;100.00
35647;BME280;28680;45.642;13.756;2023-07-08T03:29:16;101718.59;;;23.87;100.00
35647;BME280;28680;45.642;13.756;2023-07-08T03:31:44;101716.31;;;23.84;100.00
35647;BME280;28680;45.642;13.756;2023-07-08T03:34:15;101717.31;;;23.83;100.00
35647;BME280;28680;45.642;13.756;2023-07-08T03:36:45;101703.19;;;23.89;100.00
35647;BME280;28680;45.642;13.756;2023-07-08T03:39:16;101708.34;;;23.91;100.00
35647;BME280;28680;45.642;13.756;2023-07-08T03:41:42;101691.72;;;23.96;100.00
35647;BME280;28680;45.642;13.756;2023-07-08T03:44:09;101698.56;;;23.98;100.00
35647;BME280;28680;45.642;13.756;2023-07-08T03:46:34;101698.94;;;23.95;100.00
35647;BME280;28680;45.642;13.756;2023-07-08T03:49:00;101699.31;;;23.92;100.00
35647;BME280;28680;45.642;13.756;2023-07-08T03:51:36;101701.81;;;23.93;100.00
35647;BME280;28680;45.642;13.756;2023-07-08T03:54:04;101699.59;;;23.82;100.00
35647;BME280;28680;45.642;13.756;2023-07-08T03:56:30;101692.56;;;23.81;100.00
35647;BME280;28680;45.642;13.756;2023-07-08T03:58:56;101698.84;;;23.88;100.00
35647;BME280;28680;45.642;13.756;2023-07-08T04:01:24;101690.44;;;23.91;100.00
35647;BME280;28680;45.642;13.756;2023-07-08T04:03:53;101701.53;;;23.88;100.00
35647;BME280;28680;45.642;13.756;2023-07-08T04:06:20;101703.75;;;23.85;100.00
35647;BME280;28680;45.642;13.756;2023-07-08T04:08:46;101707.06;;;23.87;100.00
35647;BME280;28680;45.642;13.756;2023-07-08T04:11:15;101715.28;;;23.85;100.00
35647;BME280;28680;45.642;13.756;2023-07-08T04:13:41;101721.03;;;23.97;100.00
35647;BME280;28680;45.642;13.756;2023-07-08T04:16:25;101720.94;;;23.90;100.00
35647;BME280;28680;45.642;13.756;2023-07-08T04:18:54;101720.66;;;24.00;100.00
35647;BME280;28680;45.642;13.756;2023-07-08T04:21:22;101698.84;;;24.03;100.00
35647;BME280;28680;45.642;13.756;2023-07-08T04:23:48;101701.34;;;24.05;100.00
35647;BME280;28680;45.642;13.756;2023-07-08T04:26:15;101708.00;;;24.09;100.00
35647;BME280;28680;45.642;13.756;2023-07-08T04:28:42;101715.56;;;24.20;100.00
35647;BME280;28680;45.642;13.756;2023-07-08T04:31:08;101716.75;;;24.18;100.00
35647;BME280;28680;45.642;13.756;2023-07-08T04:33:34;101710.56;;;24.17;100.00
35647;BME280;28680;45.642;13.756;2023-07-08T04:36:00;101711.22;;;24.19;100.00
35647;BME280;28680;45.642;13.756;2023-07-08T04:38:26;101716.75;;;24.18;100.00
35647;BME280;28680;45.642;13.756;2023-07-08T04:40:53;101713.34;;;24.09;100.00
35647;BME280;28680;45.642;13.756;2023-07-08T04:43:21;101721.94;;;24.04;100.00
35647;BME280;28680;45.642;13.756;2023-07-08T04:45:53;101725.25;;;24.06;100.00
35647;BME280;28680;45.642;13.756;2023-07-08T04:48:20;101723.50;;;23.99;100.00
35647;BME280;28680;45.642;13.756;2023-07-08T04:50:51;101717.91;;;24.08;100.00
35647;BME280;28680;45.642;13.756;2023-07-08T04:53:18;101716.41;;;24.06;100.00
35647;BME280;28680;45.642;13.756;2023-07-08T04:55:55;101706.13;;;24.09;100.00
35647;BME280;28680;45.642;13.756;2023-07-08T04:58:22;101710.97;;;24.14;100.00
35647;BME280;28680;45.642;13.756;2023-07-08T05:00:48;101715.94;;;24.17;100.00
35647;BME280;28680;45.642;13.756;2023-07-08T05:03:16;101722.88;;;24.11;100.00
35647;BME280;28680;45.642;13.756;2023-07-08T05:05:42;101718.59;;;24.17;100.00
35647;BME280;28680;45.642;13.756;2023-07-08T05:08:08;101719.34;;;24.26;100.00
35647;BME280;28680;45.642;13.756;2023-07-08T05:10:34;101715.44;;;24.28;100.00
35647;BME280;28680;45.642;13.756;2023-07-08T05:13:00;101711.94;;;24.28;100.00
35647;BME280;28680;45.642;13.756;2023-07-08T05:15:26;101711.38;;;24.32;100.00
35647;BME280;28680;45.642;13.756;2023-07-08T05:17:52;101708.50;;;24.34;100.00
35647;BME280;28680;45.642;13.756;2023-07-08T05:20:19;101708.97;;;24.38;100.00
35647;BME280;28680;45.642;13.756;2023-07-08T05:22:46;101708.22;;;24.44;100.00
35647;BME280;28680;45.642;13.756;2023-07-08T05:25:12;101715.06;;;24.46;100.00
35647;BME280;28680;45.642;13.756;2023-07-08T05:27:39;101725.53;;;24.56;100.00
35647;BME280;28680;45.642;13.756;2023-07-08T05:30:06;101714.66;;;24.49;100.00
35647;BME280;28680;45.642;13.756;2023-07-08T05:32:33;101707.84;;;24.47;100.00
35647;BME280;28680;45.642;13.756;2023-07-08T05:34:59;101710.53;;;24.47;100.00
35647;BME280;28680;45.642;13.756;2023-07-08T05:37:25;101711.28;;;24.56;100.00
35647;BME280;28680;45.642;13.756;2023-07-08T05:39:55;101708.97;;;24.52;100.00
35647;BME280;28680;45.642;13.756;2023-07-08T05:42:22;101707.47;;;24.50;100.00
35647;BME280;28680;45.642;13.756;2023-07-08T05:44:48;101714.41;;;24.59;100.00
35647;BME280;28680;45.642;13.756;2023-07-08T05:47:17;101715.88;;;24.62;100.00
35647;BME280;28680;45.642;13.756;2023-07-08T05:49:43;101723.25;;;24.75;100.00
35647;BME280;28680;45.642;13.756;2023-07-08T05:52:09;101711.75;;;24.81;100.00
35647;BME280;28680;45.642;13.756;2023-07-08T05:54:40;101713.84;;;24.85;100.00
35647;BME280;28680;45.642;13.756;2023-07-08T05:57:09;101719.84;;;24.87;100.00
35647;BME280;28680;45.642;13.756;2023-07-08T05:59:36;101721.34;;;24.90;100.00
35647;BME280;28680;45.642;13.756;2023-07-08T06:02:05;101717.06;;;24.96;100.00
35647;BME280;28680;45.642;13.756;2023-07-08T06:04:32;101720.50;;;24.89;100.00
35647;BME280;28680;45.642;13.756;2023-07-08T06:06:58;101712.72;;;24.95;100.00
35647;BME280;28680;45.642;13.756;2023-07-08T06:09:24;101703.19;;;24.92;100.00
35647;BME280;28680;45.642;13.756;2023-07-08T06:11:50;101700.97;;;24.96;100.00
35647;BME280;28680;45.642;13.756;2023-07-08T06:14:16;101702.03;;;25.01;100.00
35647;BME280;28680;45.642;13.756;2023-07-08T06:16:42;101706.44;;;25.09;100.00
35647;BME280;28680;45.642;13.756;2023-07-08T06:19:08;101709.31;;;25.07;100.00
35647;BME280;28680;45.642;13.756;2023-07-08T06:21:34;101712.28;;;25.13;100.00
35647;BME280;28680;45.642;13.756;2023-07-08T06:24:00;101700.47;;;25.14;100.00
35647;BME280;28680;45.642;13.756;2023-07-08T06:26:26;101707.66;;;25.28;100.00
35647;BME280;28680;45.642;13.756;2023-07-08T06:28:52;101704.38;;;25.33;100.00
35647;BME280;28680;45.642;13.756;2023-07-08T06:31:18;101695.31;;;25.34;100.00
35647;BME280;28680;45.642;13.756;2023-07-08T06:33:44;101689.97;;;25.40;100.00
35647;BME280;28680;45.642;13.756;2023-07-08T06:36:10;101690.94;;;25.61;100.00
35647;BME280;28680;45.642;13.756;2023-07-08T06:38:36;101683.25;;;25.86;100.00
35647;BME280;28680;45.642;13.756;2023-07-08T06:41:02;101690.47;;;25.85;100.00
35647;BME280;28680;45.642;13.756;2023-07-08T06:43:27;101687.59;;;25.87;100.00
35647;BME280;28680;45.642;13.756;2023-07-08T06:45:53;101681.94;;;26.03;100.00
35647;BME280;28680;45.642;13.756;2023-07-08T06:48:19;101676.13;;;26.06;100.00
35647;BME280;28680;45.642;13.756;2023-07-08T06:50:48;101686.06;;;26.06;100.00
35647;BME280;28680;45.642;13.756;2023-07-08T06:53:15;101683.84;;;26.16;100.00
35647;BME280;28680;45.642;13.756;2023-07-08T06:55:41;101684.09;;;26.28;100.00
35647;BME280;28680;45.642;13.756;2023-07-08T06:58:07;101689.47;;;26.35;100.00
35647;BME280;28680;45.642;13.756;2023-07-08T07:00:33;101685.34;;;26.32;100.00
35647;BME280;28680;45.642;13.756;2023-07-08T07:02:58;101685.97;;;26.34;100.00
35647;BME280;28680;45.642;13.756;2023-07-08T07:05:24;101679.56;;;26.42;100.00
35647;BME280;28680;45.642;13.756;2023-07-08T07:07:50;101676.69;;;26.50;100.00
35647;BME280;28680;45.642;13.756;2023-07-08T07:10:19;101673.59;;;26.53;100.00
35647;BME280;28680;45.642;13.756;2023-07-08T07:12:45;101676.91;;;26.49;100.00
35647;BME280;28680;45.642;13.756;2023-07-08T07:15:10;101668.03;;;26.55;100.00
35647;BME280;28680;45.642;13.756;2023-07-08T07:17:36;101658.75;;;26.64;100.00
35647;BME280;28680;45.642;13.756;2023-07-08T07:20:04;101662.00;;;26.53;100.00
35647;BME280;28680;45.642;13.756;2023-07-08T07:22:31;101663.72;;;26.60;100.00
35647;BME280;28680;45.642;13.756;2023-07-08T07:24:57;101656.25;;;26.69;100.00
35647;BME280;28680;45.642;13.756;2023-07-08T07:27:22;101666.03;;;26.77;100.00
35647;BME280;28680;45.642;13.756;2023-07-08T07:29:50;101665.63;;;26.87;100.00
35647;BME280;28680;45.642;13.756;2023-07-08T07:32:19;101656.28;;;26.76;100.00
35647;BME280;28680;45.642;13.756;2023-07-08T07:34:49;101660.03;;;26.88;100.00
35647;BME280;28680;45.642;13.756;2023-07-08T07:37:17;101660.41;;;26.92;100.00
35647;BME280;28680;45.642;13.756;2023-07-08T07:39:44;101663.53;;;27.02;100.00
35647;BME280;28680;45.642;13.756;2023-07-08T07:42:11;101657.31;;;27.08;100.00
35647;BME280;28680;45.642;13.756;2023-07-08T07:44:37;101657.72;;;27.05;100.00
35647;BME280;28680;45.642;13.756;2023-07-08T07:47:06;101661.88;;;27.08;100.00
35647;BME280;28680;45.642;13.756;2023-07-08T07:49:32;101652.13;;;27.07;100.00
35647;BME280;28680;45.642;13.756;2023-07-08T07:51:58;101651.31;;;27.19;100.00
35647;BME280;28680;45.642;13.756;2023-07-08T07:54:24;101661.88;;;27.28;100.00
35647;BME280;28680;45.642;13.756;2023-07-08T07:56:51;101657.13;;;27.36;100.00
35647;BME280;28680;45.642;13.756;2023-07-08T07:59:17;101651.72;;;27.43;100.00
35647;BME280;28680;45.642;13.756;2023-07-08T08:01:43;101658.97;;;27.49;100.00
35647;BME280;28680;45.642;13.756;2023-07-08T08:04:10;101661.03;;;27.60;100.00
35647;BME280;28680;45.642;13.756;2023-07-08T08:06:37;101660.59;;;27.70;100.00
35647;BME280;28680;45.642;13.756;2023-07-08T08:09:04;101660.78;;;27.69;100.00
35647;BME280;28680;45.642;13.756;2023-07-08T08:11:31;101665.56;;;27.73;100.00
35647;BME280;28680;45.642;13.756;2023-07-08T08:13:57;101667.19;;;27.74;100.00
35647;BME280;28680;45.642;13.756;2023-07-08T08:16:23;101671.78;;;27.74;100.00
35647;BME280;28680;45.642;13.756;2023-07-08T08:18:49;101668.22;;;27.87;100.00
35647;BME280;28680;45.642;13.756;2023-07-08T08:21:15;101669.66;;;27.96;100.00
35647;BME280;28680;45.642;13.756;2023-07-08T08:23:42;101665.28;;;28.02;100.00
35647;BME280;28680;45.642;13.756;2023-07-08T08:26:08;101664.69;;;27.93;100.00
35647;BME280;28680;45.642;13.756;2023-07-08T08:28:34;101661.94;;;27.99;100.00
35647;BME280;28680;45.642;13.756;2023-07-08T08:31:00;101660.91;;;28.00;100.00
35647;BME280;28680;45.642;13.756;2023-07-08T08:33:26;101656.56;;;27.99;100.00
35647;BME280;28680;45.642;13.756;2023-07-08T08:35:51;101671.72;;;28.00;100.00
35647;BME280;28680;45.642;13.756;2023-07-08T08:38:17;101680.00;;;27.99;100.00
35647;BME280;28680;45.642;13.756;2023-07-08T08:40:43;101669.63;;;28.09;100.00
35647;BME280;28680;45.642;13.756;2023-07-08T08:43:23;101681.63;;;28.07;100.00
35647;BME280;28680;45.642;13.756;2023-07-08T08:46:06;101675.00;;;28.09;100.00
35647;BME280;28680;45.642;13.756;2023-07-08T08:51:26;101675.78;;;28.16;100.00
35647;BME280;28680;45.642;13.756;2023-07-08T08:53:57;101669.75;;;28.21;100.00
35647;BME280;28680;45.642;13.756;2023-07-08T08:59:53;101659.19;;;28.19;100.00
35647;BME280;28680;45.642;13.756;2023-07-08T09:03:08;101664.91;;;28.30;100.00
35647;BME280;28680;45.642;13.756;2023-07-08T09:05:36;101665.56;;;28.32;100.00
35647;BME280;28680;45.642;13.756;2023-07-08T09:08:26;101683.19;;;28.34;100.00
35647;BME280;28680;45.642;13.756;2023-07-08T09:13:46;101674.34;;;28.59;100.00
35647;BME280;28680;45.642;13.756;2023-07-08T09:19:25;101674.13;;;28.61;100.00
35647;BME280;28680;45.642;13.756;2023-07-08T09:22:11;101672.47;;;28.60;100.00
35647;BME280;28680;45.642;13.756;2023-07-08T09:24:54;101684.47;;;28.70;100.00
35647;BME280;28680;45.642;13.756;2023-07-08T09:27:22;101688.63;;;28.98;100.00
35647;BME280;28680;45.642;13.756;2023-07-08T09:29:48;101683.22;;;28.98;100.00
35647;BME280;28680;45.642;13.756;2023-07-08T09:32:24;101680.53;;;28.98;100.00
35647;BME280;28680;45.642;13.756;2023-07-08T09:34:57;101677.03;;;28.91;100.00
35647;BME280;28680;45.642;13.756;2023-07-08T09:37:34;101679.06;;;28.95;100.00
35647;BME280;28680;45.642;13.756;2023-07-08T09:40:14;101676.53;;;29.01;100.00
35647;BME280;28680;45.642;13.756;2023-07-08T09:42:43;101675.06;;;29.05;100.00
35647;BME280;28680;45.642;13.756;2023-07-08T09:45:18;101676.63;;;29.19;100.00
35647;BME280;28680;45.642;13.756;2023-07-08T09:47:44;101680.09;;;29.26;100.00
35647;BME280;28680;45.642;13.756;2023-07-08T09:50:31;101681.78;;;29.46;100.00
35647;BME280;28680;45.642;13.756;2023-07-08T09:53:01;101679.09;;;29.46;100.00
35647;BME280;28680;45.642;13.756;2023-07-08T09:55:27;101684.53;;;29.39;100.00
35647;BME280;28680;45.642;13.756;2023-07-08T09:57:56;101695.00;;;29.54;100.00
35647;BME280;28680;45.642;13.756;2023-07-08T10:00:43;101687.69;;;29.80;88.25
35647;BME280;28680;45.642;13.756;2023-07-08T10:03:30;101690.31;;;29.86;91.24
35647;BME280;28680;45.642;13.756;2023-07-08T10:05:59;101698.97;;;29.77;100.00
35647;BME280;28680;45.642;13.756;2023-07-08T10:08:39;101695.34;;;30.01;99.47
35647;BME280;28680;45.642;13.756;2023-07-08T10:11:26;101698.00;;;29.89;100.00
35647;BME280;28680;45.642;13.756;2023-07-08T10:14:44;101689.34;;;29.99;100.00
35647;BME280;28680;45.642;13.756;2023-07-08T10:16:44;101687.28;;;30.13;100.00
35647;BME280;28680;45.642;13.756;2023-07-08T10:19:17;101683.59;;;30.07;100.00
35647;BME280;28680;45.642;13.756;2023-07-08T10:25:24;101698.44;;;29.86;100.00
35647;BME280;28680;45.642;13.756;2023-07-08T10:28:06;101704.06;;;29.85;100.00
35647;BME280;28680;45.642;13.756;2023-07-08T11:00:11;101676.84;;;30.47;100.00
35647;BME280;28680;45.642;13.756;2023-07-08T11:05:43;101685.25;;;30.99;100.00
35647;BME280;28680;45.642;13.756;2023-07-08T11:08:32;101682.09;;;31.02;100.00
35647;BME280;28680;45.642;13.756;2023-07-08T11:11:12;101681.00;;;30.92;100.00
35647;BME280;28680;45.642;13.756;2023-07-08T11:13:53;101688.53;;;30.89;100.00
35647;BME280;28680;45.642;13.756;2023-07-08T11:16:30;101691.84;;;30.92;100.00
35647;BME280;28680;45.642;13.756;2023-07-08T11:19:13;101692.72;;;31.27;100.00
35647;BME280;28680;45.642;13.756;2023-07-08T11:21:47;101690.91;;;31.09;100.00
35647;BME280;28680;45.642;13.756;2023-07-08T11:24:28;101693.22;;;30.82;100.00
35647;BME280;28680;45.642;13.756;2023-07-08T11:27:08;101695.88;;;31.13;100.00
35647;BME280;28680;45.642;13.756;2023-07-08T11:29:51;101698.00;;;30.99;100.00
35647;BME280;28680;45.642;13.756;2023-07-08T11:32:23;101696.38;;;31.21;100.00
35647;BME280;28680;45.642;13.756;2023-07-08T11:34:52;101696.69;;;31.13;100.00
35647;BME280;28680;45.642;13.756;2023-07-08T11:37:20;101703.66;;;31.09;100.00
35647;BME280;28680;45.642;13.756;2023-07-08T11:39:58;101694.38;;;31.40;100.00
35647;BME280;28680;45.642;13.756;2023-07-08T11:42:40;101696.50;;;31.50;100.00
35647;BME280;28680;45.642;13.756;2023-07-08T11:45:33;101687.22;;;32.10;100.00
35647;BME280;28680;45.642;13.756;2023-07-08T11:48:27;101689.13;;;31.86;100.00
35647;BME280;28680;45.642;13.756;2023-07-08T11:50:56;101695.78;;;31.66;100.00
35647;BME280;28680;45.642;13.756;2023-07-08T11:56:04;101687.78;;;32.41;100.00
35647;BME280;28680;45.642;13.756;2023-07-08T11:59:18;101685.53;;;32.09;100.00
35647;BME280;28680;45.642;13.756;2023-07-08T12:01:38;101679.13;;;32.27;100.00
35647;BME280;28680;45.642;13.756;2023-07-08T12:06:53;101688.41;;;31.91;100.00
35647;BME280;28680;45.642;13.756;2023-07-08T12:09:29;101678.53;;;31.73;100.00
35647;BME280;28680;45.642;13.756;2023-07-08T12:12:24;101683.13;;;31.84;100.00
35647;BME280;28680;45.642;13.756;2023-07-08T12:14:58;101692.25;;;32.18;100.00
35647;BME280;28680;45.642;13.756;2023-07-08T12:17:25;101691.31;;;32.41;100.00
35647;BME280;28680;45.642;13.756;2023-07-08T12:19:52;101680.41;;;32.24;100.00
35647;BME280;28680;45.642;13.756;2023-07-08T12:22:21;101683.41;;;32.40;100.00
35647;BME280;28680;45.642;13.756;2023-07-08T12:24:47;101686.88;;;32.07;100.00
35647;BME280;28680;45.642;13.756;2023-07-08T12:27:12;101687.22;;;32.10;100.00
35647;BME280;28680;45.642;13.756;2023-07-08T12:29:38;101682.28;;;32.53;100.00
35647;BME280;28680;45.642;13.756;2023-07-08T12:32:05;101681.66;;;32.62;100.00
35647;BME280;28680;45.642;13.756;2023-07-08T12:34:31;101677.19;;;32.56;100.00
35647;BME280;28680;45.642;13.756;2023-07-08T12:36:58;101678.75;;;32.52;100.00
35647;BME280;28680;45.642;13.756;2023-07-08T12:39:24;101677.59;;;33.11;100.00
35647;BME280;28680;45.642;13.756;2023-07-08T12:41:50;101677.81;;;33.26;100.00
35647;BME280;28680;45.642;13.756;2023-07-08T12:44:26;101676.16;;;33.25;100.00
35647;BME280;28680;45.642;13.756;2023-07-08T12:46:55;101678.56;;;33.05;100.00
35647;BME280;28680;45.642;13.756;2023-07-08T12:49:21;101670.91;;;32.85;100.00
35647;BME280;28680;45.642;13.756;2023-07-08T12:51:53;101665.25;;;32.40;100.00
35647;BME280;28680;45.642;13.756;2023-07-08T12:54:19;101661.84;;;32.33;100.00
35647;BME280;28680;45.642;13.756;2023-07-08T12:56:46;101663.22;;;32.36;100.00
35647;BME280;28680;45.642;13.756;2023-07-08T12:59:21;101654.88;;;32.54;100.00
35647;BME280;28680;45.642;13.756;2023-07-08T13:01:49;101657.16;;;32.45;100.00
35647;BME280;28680;45.642;13.756;2023-07-08T13:04:17;101654.50;;;32.79;100.00
35647;BME280;28680;45.642;13.756;2023-07-08T13:06:45;101657.88;;;32.70;100.00
35647;BME280;28680;45.642;13.756;2023-07-08T13:09:42;101654.44;;;32.74;100.00
35647;BME280;28680;45.642;13.756;2023-07-08T13:12:16;101658.63;;;32.99;100.00
35647;BME280;28680;45.642;13.756;2023-07-08T13:14:46;101662.41;;;33.32;100.00
35647;BME280;28680;45.642;13.756;2023-07-08T13:17:16;101656.72;;;33.33;100.00
35647;BME280;28680;45.642;13.756;2023-07-08T13:19:43;101653.09;;;33.50;100.00
35647;BME280;28680;45.642;13.756;2023-07-08T13:22:19;101647.31;;;33.24;100.00
35647;BME280;28680;45.642;13.756;2023-07-08T13:24:48;101648.38;;;33.06;100.00
35647;BME280;28680;45.642;13.756;2023-07-08T13:27:33;101649.25;;;32.73;100.00
35647;BME280;28680;45.642;13.756;2023-07-08T13:30:20;101650.41;;;32.77;100.00
35647;BME280;28680;45.642;13.756;2023-07-08T13:32:53;101643.56;;;32.74;100.00
35647;BME280;28680;45.642;13.756;2023-07-08T13:35:39;101650.72;;;32.97;100.00
35647;BME280;28680;45.642;13.756;2023-07-08T13:38:13;101651.03;;;33.01;100.00
35647;BME280;28680;45.642;13.756;2023-07-08T13:40:53;101650.16;;;32.95;100.00